createdAt,value
2023-05-15T00:02:24.452Z,73.85
2023-05-15T00:04:51.479Z,75.58
2023-05-15T00:07:18.379Z,76.58
2023-05-15T00:09:45.205Z,76.35
2023-05-15T00:12:12.083Z,76.81
2023-05-15T00:14:38.909Z,74.75
2023-05-15T00:17:06.361Z,75.72
2023-05-15T00:19:34.239Z,77.44
2023-05-15T00:22:01.355Z,77.79
2023-05-15T00:24:28.209Z,76.54
2023-05-15T00:26:55.071Z,73.47
2023-05-15T00:29:21.941Z,74.34
2023-05-15T00:31:48.968Z,75.91
2023-05-15T00:34:15.903Z,76.57
2023-05-15T00:36:42.850Z,74.36
2023-05-15T00:39:09.717Z,73.53
2023-05-15T00:41:37.476Z,74.25
2023-05-15T00:44:04.558Z,76.73
2023-05-15T00:46:32.601Z,75.56
2023-05-15T00:48:59.911Z,73.46
2023-05-15T00:51:27.456Z,77.69
2023-05-15T00:53:55.155Z,75.75
2023-05-15T00:56:22.308Z,77.33
2023-05-15T00:58:55.865Z,78.38
2023-05-15T01:01:22.842Z,76.91
2023-05-15T01:03:49.893Z,78.21
2023-05-15T01:06:16.776Z,76.97
2023-05-15T01:08:46.240Z,75.25
2023-05-15T01:11:14.734Z,75.32
2023-05-15T01:13:41.651Z,76.10
2023-05-15T01:16:09.326Z,75.22
2023-05-15T01:18:52.436Z,77.86
2023-05-15T01:21:34.569Z,75.77
2023-05-15T01:24:26.380Z,78.55
2023-05-15T01:27:05.380Z,75.47
2023-05-15T01:30:09.502Z,78.39
2023-05-15T01:33:06.053Z,80.45
2023-05-15T01:36:01.129Z,82.03
2023-05-15T01:38:39.243Z,81.79
2023-05-15T01:41:09.705Z,83.15
2023-05-15T01:43:40.361Z,81.17
2023-05-15T01:46:08.056Z,81.40
2023-05-15T01:48:36.645Z,84.12
2023-05-15T01:51:05.416Z,79.14
2023-05-15T01:53:33.334Z,81.09
2023-05-15T01:56:00.306Z,79.07
2023-05-15T01:58:27.735Z,79.22
2023-05-15T02:00:55.506Z,79.58
2023-05-15T02:03:22.526Z,80.81
2023-05-15T02:05:49.877Z,77.85
2023-05-15T02:08:16.992Z,76.89
2023-05-15T02:10:44.190Z,77.32
2023-05-15T02:13:11.695Z,76.46
2023-05-15T02:15:38.891Z,78.37
2023-05-15T02:18:06.064Z,80.15
2023-05-15T02:20:32.937Z,78.86
2023-05-15T02:22:59.808Z,81.41
2023-05-15T02:25:35.318Z,81.12
2023-05-15T02:28:05.116Z,79.19
2023-05-15T02:30:46.731Z,79.90
2023-05-15T02:33:25.618Z,78.40
2023-05-15T02:35:55.244Z,76.01
2023-05-15T02:38:41.693Z,78.00
2023-05-15T02:41:09.982Z,77.82
2023-05-15T02:43:37.484Z,75.61
2023-05-15T02:46:05.633Z,77.25
2023-05-15T02:48:34.941Z,77.68
2023-05-15T02:51:01.807Z,80.40
2023-05-15T02:53:28.874Z,80.08
2023-05-15T02:55:55.684Z,78.84
2023-05-15T02:58:22.500Z,79.94
2023-05-15T03:00:49.463Z,78.89
2023-05-15T03:03:16.332Z,80.93
2023-05-15T03:05:43.164Z,80.80
2023-05-15T03:08:09.992Z,77.92
2023-05-15T03:10:36.834Z,75.03
2023-05-15T03:13:03.755Z,79.68
2023-05-15T03:15:30.660Z,87.64
2023-05-15T03:17:57.583Z,90.80
2023-05-15T03:20:24.545Z,88.72
2023-05-15T03:22:51.384Z,85.60
2023-05-15T03:25:18.385Z,88.73
2023-05-15T03:27:45.216Z,80.42
2023-05-15T03:30:21.887Z,81.26
2023-05-15T03:32:48.804Z,82.52
2023-05-15T03:35:15.694Z,81.59
2023-05-15T03:37:42.587Z,81.95
2023-05-15T03:40:09.784Z,84.10
2023-05-15T03:42:36.622Z,86.81
2023-05-15T03:45:03.527Z,88.10
2023-05-15T03:47:30.473Z,83.39
2023-05-15T03:49:57.343Z,85.84
2023-05-15T03:52:24.159Z,85.03
2023-05-15T03:54:51.144Z,83.13
2023-05-15T03:57:18.045Z,80.19
2023-05-15T03:59:48.855Z,79.79
2023-05-15T04:02:15.822Z,81.85
2023-05-15T04:04:44.417Z,82.21
2023-05-15T04:07:11.283Z,84.95
2023-05-15T04:09:39.103Z,87.30
2023-05-15T04:12:06.327Z,86.83
2023-05-15T04:14:33.166Z,88.19
2023-05-15T04:16:59.979Z,85.58
2023-05-15T04:19:30.871Z,83.46
2023-05-15T04:21:57.670Z,82.52
2023-05-15T04:24:24.483Z,82.06
2023-05-15T04:26:51.462Z,81.41
2023-05-15T04:29:18.367Z,82.01
2023-05-15T04:31:45.303Z,78.93
2023-05-15T04:34:12.257Z,81.12
2023-05-15T04:36:40.662Z,80.12
2023-05-15T04:39:08.525Z,78.77
2023-05-15T04:41:35.361Z,78.75
2023-05-15T04:44:02.174Z,77.96
2023-05-15T04:46:29.524Z,79.47
2023-05-15T04:48:56.715Z,79.00
2023-05-15T04:51:23.593Z,76.58
2023-05-15T04:53:50.453Z,74.36
2023-05-15T04:56:17.300Z,75.52
2023-05-15T04:58:44.134Z,73.52
2023-05-15T05:01:10.978Z,73.56
2023-05-15T05:03:37.916Z,73.59
2023-05-15T05:06:05.055Z,71.84
2023-05-15T05:08:34.176Z,72.35
2023-05-15T05:11:00.994Z,72.22
2023-05-15T05:13:28.015Z,72.79
2023-05-15T05:15:54.897Z,74.09
2023-05-15T05:18:21.805Z,73.87
2023-05-15T05:20:48.656Z,72.91
2023-05-15T05:23:15.480Z,75.75
2023-05-15T05:25:42.493Z,76.56
2023-05-15T05:28:09.335Z,79.16
2023-05-15T05:30:36.147Z,77.46
2023-05-15T05:33:03.148Z,75.38
2023-05-15T05:35:30.173Z,75.17
2023-05-15T05:37:56.990Z,73.38
2023-05-15T05:40:23.949Z,74.63
2023-05-15T05:42:50.837Z,71.20
2023-05-15T05:45:17.800Z,71.11
2023-05-15T05:47:44.693Z,68.91
2023-05-15T05:50:12.046Z,69.91
2023-05-15T05:52:38.873Z,68.93
2023-05-15T05:55:06.180Z,67.78
2023-05-15T05:57:33.113Z,66.72
2023-05-15T06:00:02.330Z,67.98
2023-05-15T06:02:29.353Z,68.69
2023-05-15T06:04:56.305Z,69.73
2023-05-15T06:07:23.609Z,64.04
2023-05-15T06:09:50.445Z,66.36
2023-05-15T06:12:17.358Z,64.03
2023-05-15T06:14:44.211Z,61.89
2023-05-15T06:17:11.202Z,61.80
2023-05-15T06:19:38.187Z,62.23
2023-05-15T06:22:05.180Z,61.04
2023-05-15T06:24:32.134Z,60.79
2023-05-15T06:26:58.953Z,62.28
2023-05-15T06:29:27.243Z,66.87
2023-05-15T06:31:54.102Z,61.71
2023-05-15T06:34:20.948Z,61.65
2023-05-15T06:36:47.785Z,59.79
2023-05-15T06:39:15.645Z,59.75
2023-05-15T06:41:42.510Z,61.18
2023-05-15T06:44:09.339Z,61.06
2023-05-15T06:46:36.217Z,60.21
2023-05-15T06:49:03.290Z,61.28
2023-05-15T06:51:30.137Z,61.75
2023-05-15T06:53:57.024Z,63.52
2023-05-15T06:56:24.187Z,59.46
2023-05-15T06:58:51.348Z,57.80
2023-05-15T07:01:18.236Z,58.02
2023-05-15T07:03:45.195Z,57.71
2023-05-15T07:06:12.044Z,54.47
2023-05-15T07:08:42.206Z,55.24
2023-05-15T07:11:09.137Z,54.00
2023-05-15T07:13:36.136Z,54.87
2023-05-15T07:16:03.766Z,57.97
2023-05-15T07:18:31.679Z,62.54
2023-05-15T07:21:00.263Z,62.88
2023-05-15T07:23:27.302Z,64.09
2023-05-15T07:25:57.008Z,65.25
2023-05-15T07:28:23.930Z,62.53
2023-05-15T07:30:51.100Z,62.07
2023-05-15T07:33:17.984Z,59.09
2023-05-15T07:35:44.877Z,57.49
2023-05-15T07:38:11.738Z,59.41
2023-05-15T07:40:38.908Z,58.09
2023-05-15T07:43:05.754Z,57.62
2023-05-15T07:45:32.639Z,59.86
2023-05-15T07:48:14.280Z,60.70
2023-05-15T07:50:41.356Z,60.41
2023-05-15T07:53:08.264Z,61.45
2023-05-15T07:55:35.114Z,63.36
2023-05-15T07:58:01.955Z,65.10
2023-05-15T08:00:29.073Z,64.58
2023-05-15T08:02:56.509Z,65.21
2023-05-15T08:05:23.532Z,66.49
2023-05-15T08:07:50.963Z,66.50
2023-05-15T08:10:17.859Z,66.17
2023-05-15T08:12:46.804Z,62.14
2023-05-15T08:15:13.972Z,65.03
2023-05-15T08:17:41.594Z,64.80
2023-05-15T08:20:08.983Z,67.39
2023-05-15T08:22:35.955Z,68.01
2023-05-15T08:25:07.186Z,72.99
2023-05-15T08:27:34.075Z,72.01
2023-05-15T08:30:00.955Z,70.63
2023-05-15T08:32:30.913Z,65.94
2023-05-15T08:34:58.310Z,65.04
2023-05-15T08:37:25.289Z,62.79
2023-05-15T08:39:52.127Z,62.29
2023-05-15T08:42:22.111Z,64.07
2023-05-15T08:44:48.975Z,62.63
2023-05-15T08:47:16.226Z,61.93
2023-05-15T08:50:01.516Z,60.94
2023-05-15T08:52:29.070Z,59.04
2023-05-15T08:54:56.356Z,58.73
2023-05-15T08:57:23.332Z,57.74
2023-05-15T08:59:51.818Z,54.43
2023-05-15T09:02:19.902Z,57.44
2023-05-15T09:04:46.913Z,58.89
2023-05-15T09:07:15.808Z,58.46
2023-05-15T09:09:45.613Z,58.28
2023-05-15T09:12:15.668Z,59.37
2023-05-15T09:14:45.944Z,57.72
2023-05-15T09:17:12.913Z,58.94
2023-05-15T09:19:42.974Z,60.40
2023-05-15T09:22:24.436Z,59.91
2023-05-15T09:24:53.423Z,60.76
2023-05-15T09:27:20.763Z,58.25
2023-05-15T09:29:47.677Z,60.49
2023-05-15T09:32:15.403Z,59.47
2023-05-15T09:34:44.112Z,57.96
2023-05-15T09:37:13.290Z,55.80
2023-05-15T09:39:45.046Z,55.01
2023-05-15T09:42:15.916Z,54.01
2023-05-15T09:44:43.816Z,55.65
2023-05-15T09:47:11.862Z,58.33
2023-05-15T09:49:39.149Z,59.32
2023-05-15T09:52:10.034Z,61.60
2023-05-15T09:54:37.689Z,63.33
2023-05-15T09:57:09.521Z,63.14
2023-05-15T09:59:36.895Z,62.19
2023-05-15T10:02:03.893Z,62.32
2023-05-15T10:04:35.927Z,60.30
2023-05-15T10:07:02.811Z,57.78
2023-05-15T10:09:32.873Z,56.08
2023-05-15T10:11:59.920Z,54.21
2023-05-15T10:14:28.542Z,52.02
2023-05-15T10:16:56.631Z,54.51
2023-05-15T10:19:24.164Z,54.14
2023-05-15T10:21:51.916Z,57.88
2023-05-15T10:24:20.754Z,58.62
2023-05-15T10:26:48.024Z,55.56
2023-05-15T10:29:16.924Z,51.54
2023-05-15T10:31:44.043Z,51.51
2023-05-15T10:34:11.256Z,49.18
2023-05-15T10:36:38.839Z,50.94
2023-05-15T10:39:07.891Z,50.88
2023-05-15T10:41:37.487Z,49.56
2023-05-15T10:44:04.525Z,54.36
2023-05-15T10:46:33.846Z,55.77
2023-05-15T10:49:01.861Z,59.77
2023-05-15T10:51:30.967Z,57.59
2023-05-15T10:53:57.912Z,58.35
2023-05-15T10:56:30.794Z,57.39
2023-05-15T10:58:57.990Z,56.66
2023-05-15T11:01:26.784Z,52.08
2023-05-15T11:04:11.242Z,52.63
2023-05-15T11:06:40.451Z,49.99
2023-05-15T11:09:22.831Z,52.81
2023-05-15T11:11:52.721Z,53.99
2023-05-15T11:14:20.027Z,50.02
2023-05-15T11:16:53.332Z,45.64
2023-05-15T11:19:31.375Z,45.18
2023-05-15T11:21:58.848Z,44.02
2023-05-15T11:24:33.178Z,43.87
2023-05-15T11:27:04.488Z,43.70
2023-05-15T11:29:35.277Z,43.63
2023-05-15T11:32:02.183Z,44.05
2023-05-15T11:34:35.859Z,42.96
2023-05-15T11:37:02.756Z,41.97
2023-05-15T11:39:29.741Z,42.59
2023-05-15T11:41:57.113Z,43.41
2023-05-15T11:44:24.936Z,43.52
2023-05-15T11:46:51.953Z,42.97
2023-05-15T11:49:20.110Z,42.22
2023-05-15T11:51:50.626Z,44.21
2023-05-15T11:54:17.875Z,48.34
2023-05-15T11:56:45.155Z,43.68
2023-05-15T11:59:15.281Z,43.13
2023-05-15T12:01:43.101Z,41.45
2023-05-15T12:04:15.007Z,42.14
2023-05-15T12:06:47.495Z,42.66
2023-05-15T12:09:16.825Z,42.10
2023-05-15T12:11:52.263Z,42.82
2023-05-15T12:14:29.437Z,40.85
2023-05-15T12:17:02.991Z,42.26
2023-05-15T12:19:33.580Z,43.49
2023-05-15T12:22:00.572Z,41.00
2023-05-15T12:24:27.422Z,41.75
2023-05-15T12:26:56.622Z,43.17
2023-05-15T12:29:31.396Z,41.53
2023-05-15T12:31:58.379Z,40.81
2023-05-15T12:34:26.259Z,42.26
2023-05-15T12:36:53.069Z,41.76
2023-05-15T12:39:19.886Z,41.18
2023-05-15T12:41:47.808Z,45.14
2023-05-15T12:44:17.363Z,48.16
2023-05-15T12:46:44.415Z,45.04
2023-05-15T12:49:12.145Z,44.76
2023-05-15T12:51:45.441Z,46.31
2023-05-15T12:54:20.108Z,44.87
2023-05-15T12:56:49.944Z,46.26
2023-05-15T12:59:19.092Z,46.57
2023-05-15T13:01:46.176Z,45.86
2023-05-15T13:04:19.470Z,49.96
2023-05-15T13:06:47.975Z,49.26
2023-05-15T13:09:30.781Z,48.72
2023-05-15T13:11:57.598Z,49.05
2023-05-15T13:14:27.349Z,47.72
2023-05-15T13:16:54.180Z,48.05
2023-05-15T13:19:22.143Z,46.37
2023-05-15T13:21:50.918Z,46.30
2023-05-15T13:24:17.959Z,46.62
2023-05-15T13:26:44.806Z,45.24
2023-05-15T13:29:11.654Z,45.35
2023-05-15T13:31:38.666Z,49.97
2023-05-15T13:34:05.596Z,47.54
2023-05-15T13:36:32.490Z,46.86
2023-05-15T13:39:12.296Z,45.71
2023-05-15T13:41:39.206Z,43.24
2023-05-15T13:44:06.526Z,43.82
2023-05-15T13:46:33.565Z,45.20
2023-05-15T13:49:07.792Z,44.48
2023-05-15T13:51:34.649Z,46.08
2023-05-15T13:54:01.537Z,49.99
2023-05-15T13:56:28.490Z,49.89
2023-05-15T13:58:56.347Z,47.38
2023-05-15T14:01:23.281Z,48.63
2023-05-15T14:03:50.161Z,46.88
2023-05-15T14:06:17.077Z,49.74
2023-05-15T14:08:44.975Z,46.79
2023-05-15T14:11:12.100Z,48.07
2023-05-15T14:13:38.884Z,48.55
2023-05-15T14:16:06.037Z,46.73
2023-05-15T14:18:32.984Z,48.75
2023-05-15T14:20:59.846Z,49.47
2023-05-15T14:23:26.680Z,53.15
2023-05-15T14:25:53.496Z,58.58
2023-05-15T14:28:20.343Z,56.98
2023-05-15T14:30:47.253Z,58.42
2023-05-15T14:33:14.414Z,65.50
2023-05-15T14:35:41.313Z,64.94
2023-05-15T14:38:13.072Z,68.75
2023-05-15T14:40:40.030Z,68.75
2023-05-15T14:43:06.802Z,69.31
2023-05-15T14:45:33.640Z,69.58
2023-05-15T14:48:00.599Z,66.21
2023-05-15T14:50:27.892Z,64.23
2023-05-15T14:52:54.954Z,64.97
2023-05-15T14:55:24.732Z,67.26
2023-05-15T14:57:51.536Z,63.15
2023-05-15T15:00:18.518Z,62.97
2023-05-15T15:02:46.439Z,60.95
2023-05-15T15:05:13.462Z,60.96
2023-05-15T15:08:00.856Z,60.92
2023-05-15T15:10:28.325Z,62.30
2023-05-15T15:12:55.352Z,63.66
2023-05-15T15:15:22.996Z,62.27
2023-05-15T15:17:51.207Z,59.30
2023-05-15T15:20:20.394Z,59.54
2023-05-15T15:22:47.752Z,59.63
2023-05-15T15:25:14.641Z,59.90
2023-05-15T15:27:41.463Z,61.12
2023-05-15T15:30:18.365Z,59.60
2023-05-15T15:32:45.643Z,64.41
2023-05-15T15:35:13.254Z,64.84
2023-05-15T15:37:40.142Z,64.23
2023-05-15T15:40:10.136Z,64.30
2023-05-15T15:42:37.032Z,62.14
2023-05-15T15:45:04.876Z,65.56
2023-05-15T15:47:32.460Z,67.47
2023-05-15T15:50:00.013Z,69.06
2023-05-15T15:52:27.368Z,69.40
2023-05-15T15:54:54.396Z,70.58
2023-05-15T15:57:21.883Z,66.79
2023-05-15T15:59:49.421Z,65.04
2023-05-15T16:02:17.558Z,64.24
2023-05-15T16:04:44.807Z,65.80
2023-05-15T16:07:11.698Z,67.06
2023-05-15T16:09:40.677Z,68.82
2023-05-15T16:12:07.722Z,66.59
2023-05-15T16:14:34.546Z,65.88
2023-05-15T16:17:02.697Z,64.21
2023-05-15T16:19:30.184Z,64.15
2023-05-15T16:21:57.127Z,63.66
2023-05-15T16:24:24.422Z,67.26
2023-05-15T16:26:55.273Z,65.07
2023-05-15T16:29:24.079Z,64.96
2023-05-15T16:31:51.213Z,66.34
2023-05-15T16:34:18.150Z,67.35
2023-05-15T16:36:44.998Z,69.94
2023-05-15T16:39:11.888Z,69.17
2023-05-15T16:41:38.746Z,68.65
2023-05-15T16:44:10.840Z,70.01
2023-05-15T16:46:38.428Z,72.24
2023-05-15T16:49:13.261Z,74.14
2023-05-15T16:51:40.125Z,75.75
2023-05-15T16:54:07.515Z,75.77
2023-05-15T16:56:34.403Z,73.63
2023-05-15T16:59:01.260Z,73.14
2023-05-15T17:01:28.158Z,75.72
2023-05-15T17:03:55.094Z,73.20
2023-05-15T17:06:21.930Z,75.39
2023-05-15T17:08:48.827Z,74.43
2023-05-15T17:11:15.697Z,75.09
2023-05-15T17:13:42.568Z,75.20
2023-05-15T17:16:09.471Z,75.10
2023-05-15T17:18:47.626Z,77.65
2023-05-15T17:21:14.455Z,77.12
2023-05-15T17:23:41.356Z,74.00
2023-05-15T17:26:08.232Z,74.94
2023-05-15T17:28:35.853Z,76.86
2023-05-15T17:31:10.965Z,74.18
2023-05-15T17:33:37.786Z,77.03
2023-05-15T17:36:04.869Z,79.89
2023-05-15T17:38:32.751Z,79.21
2023-05-15T17:40:59.536Z,75.65
2023-05-15T17:43:26.363Z,77.97
2023-05-15T17:45:53.287Z,77.60
2023-05-15T17:48:20.175Z,78.08
2023-05-15T17:50:47.028Z,77.18
2023-05-15T17:53:13.911Z,78.02
2023-05-15T17:55:40.703Z,76.83
2023-05-15T17:58:07.549Z,75.89
2023-05-15T18:00:34.345Z,74.06
2023-05-15T18:03:01.723Z,71.97
2023-05-15T18:05:28.931Z,74.18
2023-05-15T18:07:58.260Z,73.67
2023-05-15T18:10:25.150Z,74.76
2023-05-15T18:12:52.124Z,72.84
2023-05-15T18:15:18.949Z,72.90
2023-05-15T18:17:45.874Z,71.52
2023-05-15T18:20:13.255Z,72.62
2023-05-15T18:22:41.129Z,69.73
2023-05-15T18:25:08.241Z,63.64
2023-05-15T18:27:35.124Z,62.91
2023-05-15T18:30:02.388Z,63.32
2023-05-15T18:32:29.256Z,62.78
2023-05-15T18:34:56.213Z,62.82
2023-05-15T18:37:23.137Z,62.38
2023-05-15T18:39:49.987Z,62.17
2023-05-15T18:42:16.958Z,61.75
2023-05-15T18:44:44.681Z,61.45
2023-05-15T18:47:11.561Z,60.63
2023-05-15T18:49:38.425Z,60.38
2023-05-15T18:52:06.235Z,60.14
2023-05-15T18:54:33.117Z,59.45
2023-05-15T18:57:00.107Z,58.65
2023-05-15T18:59:28.875Z,58.19
2023-05-15T19:01:55.741Z,58.64
2023-05-15T19:04:22.725Z,56.53
2023-05-15T19:06:50.495Z,58.99
2023-05-15T19:09:20.800Z,62.00
2023-05-15T19:11:49.492Z,60.58
2023-05-15T19:14:18.093Z,60.27
2023-05-15T19:16:46.238Z,61.64
2023-05-15T19:19:13.668Z,60.45
2023-05-15T19:21:40.639Z,60.01
2023-05-15T19:24:07.642Z,59.96
2023-05-15T19:26:34.653Z,59.93
2023-05-15T19:29:01.491Z,60.09
2023-05-15T19:31:31.905Z,60.90
2023-05-15T19:34:00.119Z,59.63
2023-05-15T19:36:27.405Z,59.85
2023-05-15T19:38:54.285Z,57.04
2023-05-15T19:41:22.441Z,57.18
2023-05-15T19:43:50.962Z,58.37
2023-05-15T19:46:18.655Z,59.64
2023-05-15T19:48:45.767Z,59.95
2023-05-15T19:51:12.758Z,59.45
2023-05-15T19:53:39.626Z,59.49
2023-05-15T19:56:06.687Z,59.17
2023-05-15T19:58:46.693Z,59.72
2023-05-15T20:01:13.827Z,59.10
2023-05-15T20:03:40.813Z,58.52
2023-05-15T20:06:07.820Z,58.69
2023-05-15T20:08:34.665Z,58.19
2023-05-15T20:11:01.637Z,60.81
2023-05-15T20:13:28.520Z,60.98
2023-05-15T20:16:00.084Z,60.77
2023-05-15T20:18:28.697Z,59.63
2023-05-15T20:20:56.005Z,59.92
2023-05-15T20:23:23.220Z,59.56
2023-05-15T20:25:50.917Z,60.19
2023-05-15T20:28:27.311Z,59.15
2023-05-15T20:30:57.565Z,59.87
2023-05-15T20:33:24.465Z,59.68
2023-05-15T20:35:51.782Z,59.80
2023-05-15T20:38:18.612Z,59.81
2023-05-15T20:40:45.452Z,60.59
2023-05-15T20:43:12.302Z,61.35
2023-05-15T20:45:39.692Z,59.31
2023-05-15T20:48:06.959Z,58.54
2023-05-15T20:50:33.864Z,58.67
2023-05-15T20:53:00.767Z,60.21
2023-05-15T20:55:27.690Z,61.30
2023-05-15T20:57:54.500Z,62.31
2023-05-15T21:00:21.484Z,61.47
2023-05-15T21:02:48.494Z,60.43
2023-05-15T21:05:15.591Z,60.19
2023-05-15T21:07:42.539Z,60.29
2023-05-15T21:10:09.530Z,60.60
2023-05-15T21:12:36.464Z,60.41
2023-05-15T21:15:04.430Z,61.98
2023-05-15T21:17:31.247Z,63.14
2023-05-15T21:19:58.654Z,61.73
2023-05-15T21:22:25.873Z,63.58
2023-05-15T21:24:52.743Z,63.67
2023-05-15T21:27:19.569Z,64.21
2023-05-15T21:29:46.717Z,60.51
2023-05-15T21:32:13.705Z,62.27
2023-05-15T21:34:41.222Z,61.22
2023-05-15T21:37:08.089Z,61.08
2023-05-15T21:39:34.878Z,64.19
2023-05-15T21:42:01.740Z,62.76
2023-05-15T21:44:28.531Z,63.54
2023-05-15T21:46:56.825Z,65.67
2023-05-15T21:49:27.599Z,66.29
2023-05-15T21:51:54.433Z,66.61
2023-05-15T21:54:21.286Z,65.78
2023-05-15T21:56:48.148Z,67.17
2023-05-15T21:59:15.995Z,66.30
2023-05-15T22:01:43.005Z,65.77
2023-05-15T22:04:10.054Z,67.35
2023-05-15T22:06:36.956Z,65.37
2023-05-15T22:09:03.857Z,60.46
2023-05-15T22:11:30.728Z,61.06
2023-05-15T22:13:57.549Z,59.47
2023-05-15T22:16:24.430Z,61.30
2023-05-15T22:18:54.197Z,62.37
2023-05-15T22:21:21.221Z,63.12
2023-05-15T22:23:48.383Z,62.13
2023-05-15T22:26:15.340Z,63.36
2023-05-15T22:28:42.384Z,63.74
2023-05-15T22:31:09.260Z,67.03
2023-05-15T22:33:36.196Z,64.70
2023-05-15T22:36:03.159Z,64.04
2023-05-15T22:38:31.107Z,62.12
2023-05-15T22:40:57.988Z,61.39
2023-05-15T22:43:25.093Z,62.50
2023-05-15T22:45:52.460Z,59.72
2023-05-15T22:48:21.013Z,60.40
2023-05-15T22:50:47.872Z,59.25
2023-05-15T22:53:15.199Z,60.25
2023-05-15T22:55:42.406Z,61.12
2023-05-15T22:58:09.258Z,62.36
2023-05-15T23:00:36.163Z,62.53
2023-05-15T23:03:03.204Z,61.37
2023-05-15T23:05:30.184Z,61.43
2023-05-15T23:08:34.849Z,60.28
2023-05-15T23:11:01.808Z,60.66
2023-05-15T23:13:28.758Z,62.65
2023-05-15T23:15:55.636Z,63.14
2023-05-15T23:18:22.489Z,66.78
2023-05-15T23:20:49.411Z,67.72
2023-05-15T23:23:16.310Z,71.19
2023-05-15T23:25:43.341Z,72.23
2023-05-15T23:28:16.292Z,74.27
2023-05-15T23:30:43.165Z,72.24
2023-05-15T23:33:10.281Z,68.66
2023-05-15T23:35:37.188Z,67.72
2023-05-15T23:38:14.291Z,67.94
2023-05-15T23:40:40.915Z,67.27
2023-05-15T23:43:07.823Z,66.80
2023-05-15T23:45:35.344Z,63.72
2023-05-15T23:48:02.180Z,65.72
2023-05-15T23:50:29.203Z,61.97
2023-05-15T23:52:56.199Z,63.59
2023-05-15T23:55:23.068Z,64.56
2023-05-15T23:57:49.997Z,65.09
